To NAV CANADA Home Page Login to a new session Search on AWWS site Feedback and Comments Disclaimer Vers la page française équivalente Tips FAQ What's new on the site To the Forecasts and Observations / NOTAM section To "File a Flight Plan" website Publications and other links Update of the User's profile FIC Telephone Numbers My Weather Data Folder Route Weather Data Regional Weather Data Local Weather Data To the Forecasts and Observations / NOTAM section
Request Generated 06/26/2017 at 22:36:24 UTC . Weather information available at that time is displayed.

METAR/TAF

MARYS HARBOUR/NL    (show WxCam)

METAR CYMH 262200Z AUTO 24018G25KT 9SM FEW100 21/04 A2957 RMK SLP016
DENSITY ALT 1100FT=
METAR CYMH 262100Z AUTO 23019G28KT 9SM FEW100 22/05 A2956 RMK SLP011
DENSITY ALT 1300FT=
METAR CYMH 262000Z AUTO 21019G32KT 9SM CLR 23/07 A2955 RMK SLP010
DENSITY ALT 1300FT=

TAF CYMH 261939Z 2620/2703 21015G25KT P6SM FEW090
BECMG 2620/2622 22010G20KT
BECMG 2700/2702 23009KT
RMK FCST BASED ON AUTO OBS. NXT FCST WILL BE ISSUED AT 270845Z=
Your time UTC time
Weather data provided by Environment Canada and NAV CANADA